Time;durP1;ratioP1;P1;durP2;ratioP2;P2;SDS_P1;SDS_P2;PMS_P1;PMS_P2;Temp;Humidity;BMP_temperature;BMP_pressure;BME280_temperature;BME280_humidity;BME280_pressure;Samples;Min_cycle;Max_cycle;Signal;HPM_P1;HPM_P2
2023/10/13 00:00:42;;;;;;;5.40;3.45;;;15.30;99.90;15.30;100462.00;;;;4990203;27;93868;-68
2023/10/13 00:03:14;;;;;;;3.55;2.67;;;15.30;99.90;15.30;100465.00;;;;5004224;27;93237;-68
2023/10/13 00:05:41;;;;;;;4.18;2.55;;;15.30;99.90;15.30;100460.00;;;;5003943;27;92959;-68
2023/10/13 00:08:09;;;;;;;4.57;3.20;;;15.30;99.90;15.30;100461.00;;;;5000654;27;93432;-68
2023/10/13 00:10:35;;;;;;;3.17;2.67;;;15.30;99.90;15.30;100456.00;;;;5000377;27;108233;-69
2023/10/13 00:13:15;;;;;;;4.03;3.13;;;15.30;99.90;15.30;100453.00;;;;5003055;27;93022;-69
2023/10/13 00:15:56;;;;;;;3.53;3.17;;;15.30;99.90;15.30;100450.00;;;;5004914;27;93210;-69
2023/10/13 00:18:44;;;;;;;7.88;3.72;;;15.30;99.90;15.30;100454.00;;;;5003766;27;92282;-69
2023/10/13 00:21:13;;;;;;;7.75;3.08;;;15.30;99.90;15.30;100456.00;;;;4984176;27;93459;-69
2023/10/13 00:23:52;;;;;;;4.93;3.08;;;15.30;99.90;15.20;100454.00;;;;5001991;27;93024;-69
2023/10/13 00:26:28;;;;;;;5.20;3.90;;;15.20;99.90;15.20;100458.00;;;;5003745;27;97683;-69
2023/10/13 00:29:16;;;;;;;5.38;2.58;;;15.20;99.90;15.20;100461.00;;;;5002495;27;93441;-69
2023/10/13 00:31:43;;;;;;;6.10;3.78;;;15.20;99.90;15.20;100463.00;;;;5000901;27;92902;-69
2023/10/13 00:37:12;;;;;;;3.45;3.10;;;15.10;99.90;15.10;100451.00;;;;5004728;27;93387;-69
2023/10/13 00:39:36;;;;;;;4.50;3.53;;;15.10;99.90;15.10;100449.00;;;;5003231;27;92949;-69
2023/10/13 00:42:17;;;;;;;4.38;3.38;;;15.10;99.90;15.20;100460.00;;;;5003216;27;93858;-69
2023/10/13 00:44:49;;;;;;;3.03;2.72;;;15.10;99.90;15.20;100446.00;;;;5004380;27;92271;-69
2023/10/13 00:50:01;;;;;;;3.80;2.40;;;15.20;99.90;15.20;100456.00;;;;4991268;27;93626;-67
2023/10/13 00:52:29;;;;;;;4.32;3.15;;;15.20;99.90;15.20;100452.00;;;;4986555;27;123635;-67
2023/10/13 00:54:55;;;;;;;4.15;2.65;;;15.20;99.90;15.30;100454.00;;;;4991776;27;92929;-68
2023/10/13 00:57:26;;;;;;;9.18;3.53;;;15.20;99.90;15.30;100457.00;;;;5000375;27;108231;-68
2023/10/13 00:59:57;;;;;;;4.25;3.13;;;15.20;99.90;15.30;100457.00;;;;4990396;27;93073;-68
2023/10/13 01:05:05;;;;;;;5.45;3.85;;;15.30;99.90;15.40;100458.00;;;;4992545;27;93142;-68
2023/10/13 01:07:31;;;;;;;4.10;3.35;;;15.30;99.90;15.40;100462.00;;;;5007408;27;92965;-68
2023/10/13 01:09:56;;;;;;;3.33;2.72;;;15.30;99.90;15.40;100458.00;;;;5002005;27;122594;-68
2023/10/13 01:12:23;;;;;;;8.88;4.13;;;15.40;99.90;15.40;100466.00;;;;5001079;27;102282;-68
2023/10/13 01:14:49;;;;;;;4.80;3.03;;;15.40;99.90;15.40;100455.00;;;;5000240;27;92946;-68
2023/10/13 01:17:14;;;;;;;6.32;3.35;;;15.40;99.90;15.50;100460.00;;;;4998947;27;107682;-68
2023/10/13 01:19:45;;;;;;;3.58;2.90;;;15.40;99.90;15.50;100454.00;;;;4997107;27;112473;-69
2023/10/13 01:22:11;;;;;;;6.05;4.20;;;15.40;99.90;15.50;100459.00;;;;5001379;27;93218;-68
2023/10/13 01:24:37;;;;;;;4.38;3.17;;;15.40;99.90;15.50;100454.00;;;;4979980;27;93573;-68
2023/10/13 01:27:19;;;;;;;8.95;3.33;;;15.50;99.90;15.50;100452.00;;;;5008590;27;109978;-69
2023/10/13 01:29:48;;;;;;;3.88;3.35;;;15.50;99.90;15.50;100440.00;;;;4998070;27;93576;-69
2023/10/13 01:32:17;;;;;;;5.97;3.33;;;15.50;99.90;15.50;100452.00;;;;5002427;27;93988;-69
2023/10/13 01:34:48;;;;;;;5.68;3.40;;;15.50;99.90;15.50;100447.00;;;;4969843;27;92364;-69
2023/10/13 01:37:19;;;;;;;7.57;3.95;;;15.40;99.90;15.50;100444.00;;;;5006744;27;92974;-68
2023/10/13 01:39:49;;;;;;;4.00;3.45;;;15.40;99.90;15.50;100443.00;;;;5002708;27;123529;-69
2023/10/13 01:42:24;;;;;;;5.60;3.20;;;15.40;99.90;15.50;100443.00;;;;5003870;27;93980;-68
2023/10/13 01:44:50;;;;;;;7.72;3.53;;;15.50;99.90;15.50;100453.00;;;;5002975;27;92937;-68
2023/10/13 01:47:16;;;;;;;4.03;3.45;;;15.50;99.90;15.50;100450.00;;;;5003113;27;92915;-69
2023/10/13 01:49:46;;;;;;;5.55;3.65;;;15.50;99.90;15.50;100454.00;;;;5003835;27;93548;-69
2023/10/13 01:52:16;;;;;;;11.65;3.38;;;15.50;99.90;15.60;100453.00;;;;4997610;27;94890;-69
2023/10/13 01:54:51;;;;;;;8.43;3.33;;;15.50;99.90;15.60;100450.00;;;;5001109;27;92833;-68
2023/10/13 01:57:17;;;;;;;3.38;2.05;;;15.50;99.90;15.60;100446.00;;;;5004464;27;93002;-68
2023/10/13 01:59:47;;;;;;;3.03;2.67;;;15.50;99.90;15.60;100451.00;;;;5006390;27;92126;-68
2023/10/13 02:02:14;;;;;;;4.88;2.78;;;15.50;99.90;15.60;100455.00;;;;5003902;27;93728;-68
2023/10/13 02:04:56;;;;;;;3.45;3.15;;;15.50;99.90;15.60;100452.00;;;;4987105;27;93026;-69
2023/10/13 02:07:26;;;;;;;6.03;4.38;;;15.50;99.90;15.60;100453.00;;;;5002077;27;93727;-69
2023/10/13 02:09:54;;;;;;;4.88;3.22;;;15.50;99.90;15.60;100443.00;;;;4993405;27;94946;-69
2023/10/13 02:12:26;;;;;;;7.82;4.22;;;15.50;99.90;15.60;100441.00;;;;5005417;27;94601;-68
2023/10/13 02:14:51;;;;;;;3.88;3.30;;;15.50;99.90;15.60;100445.00;;;;4992549;27;92895;-69
2023/10/13 02:17:21;;;;;;;6.13;3.83;;;15.50;99.90;15.60;100444.00;;;;5005730;27;107802;-68
2023/10/13 02:19:47;;;;;;;6.88;4.15;;;15.50;99.90;15.60;100439.00;;;;5003102;27;93273;-68
2023/10/13 02:22:25;;;;;;;6.03;3.33;;;15.50;99.90;15.60;100430.00;;;;4986820;27;93102;-68
2023/10/13 02:24:52;;;;;;;3.42;3.08;;;15.60;99.90;15.60;100424.00;;;;5007021;27;92031;-68
2023/10/13 02:27:22;;;;;;;4.80;3.40;;;15.60;99.90;15.60;100431.00;;;;5007211;27;93647;-68
2023/10/13 02:29:50;;;;;;;3.83;3.35;;;15.50;99.90;15.50;100430.00;;;;5010158;27;93916;-68
2023/10/13 02:32:18;;;;;;;3.85;2.97;;;15.50;99.90;15.50;100425.00;;;;5004825;27;93718;-68
2023/10/13 02:34:45;;;;;;;3.45;2.72;;;15.50;99.90;15.40;100424.00;;;;5004422;27;93240;-69
2023/10/13 02:37:12;;;;;;;6.10;3.28;;;15.40;99.90;15.40;100418.00;;;;5008170;27;104174;-67
2023/10/13 02:39:41;;;;;;;4.63;3.08;;;15.40;99.90;15.40;100412.00;;;;5001718;27;94816;-67
2023/10/13 02:42:07;;;;;;;3.47;2.78;;;15.40;99.90;15.40;100418.00;;;;5005804;27;93371;-67
2023/10/13 02:44:36;;;;;;;6.07;3.42;;;15.30;99.90;15.30;100417.00;;;;5004626;27;98864;-67
2023/10/13 02:47:05;;;;;;;5.90;2.85;;;15.30;99.90;15.30;100420.00;;;;5004210;27;93022;-67
2023/10/13 02:49:34;;;;;;;3.22;2.42;;;15.30;99.90;15.30;100412.00;;;;5005272;27;92929;-67
2023/10/13 02:52:09;;;;;;;3.75;2.50;;;15.30;99.90;15.20;100412.00;;;;5006441;27;121567;-67
2023/10/13 02:54:39;;;;;;;5.55;3.13;;;15.20;99.90;15.20;100416.00;;;;5007134;27;92948;-67
2023/10/13 02:57:06;;;;;;;6.20;4.15;;;15.20;99.90;15.20;100414.00;;;;5007096;27;93885;-67
2023/10/13 02:59:46;;;;;;;6.55;2.83;;;15.20;99.90;15.20;100418.00;;;;5003948;27;94256;-67
2023/10/13 03:02:58;;;;;;;7.00;3.20;;;15.20;99.90;15.20;100419.00;;;;5006639;27;92661;-67
2023/10/13 03:05:09;;;;;;;3.83;3.22;;;15.20;99.90;15.20;100417.00;;;;5001226;27;92940;-67
2023/10/13 03:07:36;;;;;;;7.43;3.90;;;15.20;99.90;15.20;100408.00;;;;5004609;27;92797;-67
2023/10/13 03:10:09;;;;;;;5.13;3.90;;;15.10;99.90;15.20;100400.00;;;;5004390;27;93133;-67
2023/10/13 03:12:36;;;;;;;4.25;3.13;;;15.20;99.90;15.10;100399.00;;;;5004140;27;93405;-67
2023/10/13 03:15:12;;;;;;;7.07;2.92;;;15.10;99.90;15.10;100394.00;;;;5004946;27;92244;-67
2023/10/13 03:17:45;;;;;;;3.17;2.42;;;15.10;99.90;15.10;100395.00;;;;5005365;27;93300;-67
2023/10/13 03:20:16;;;;;;;6.03;3.30;;;15.10;99.90;15.10;100392.00;;;;5004989;27;92992;-67
2023/10/13 03:22:45;;;;;;;7.07;2.80;;;15.10;99.90;15.10;100383.00;;;;5006965;27;93837;-67
2023/10/13 03:25:23;;;;;;;5.30;3.10;;;15.10;99.90;15.10;100392.00;;;;5006944;27;92793;-67
2023/10/13 03:30:16;;;;;;;4.45;3.97;;;15.00;99.90;15.10;100392.00;;;;5008141;27;93158;-67
2023/10/13 03:32:45;;;;;;;8.88;4.25;;;15.10;99.90;15.10;100384.00;;;;5007337;27;115304;-68
2023/10/13 03:35:23;;;;;;;3.92;2.78;;;15.10;99.90;15.10;100382.00;;;;5005172;27;92863;-68
2023/10/13 03:37:49;;;;;;;4.80;2.95;;;15.10;99.90;15.10;100374.00;;;;5003696;27;94148;-67
2023/10/13 03:43:05;;;;;;;5.35;3.20;;;15.10;99.90;15.10;100356.00;;;;5006209;27;93226;-68
2023/10/13 03:45:39;;;;;;;2.40;2.10;;;15.10;99.90;15.00;100352.00;;;;5006568;27;94606;-67
2023/10/13 03:51:03;;;;;;;8.18;2.75;;;14.90;99.90;14.90;100360.00;;;;5003326;27;92882;-68
2023/10/13 03:53:33;;;;;;;4.28;3.17;;;14.90;99.90;14.90;100370.00;;;;5002871;27;94131;-68
2023/10/13 03:56:47;;;;;;;2.65;2.45;;;14.90;99.90;14.90;100364.00;;;;5000522;27;98650;-68
2023/10/13 03:58:59;;;;;;;3.67;3.13;;;14.90;99.90;14.90;100355.00;;;;5000637;27;93057;-67
2023/10/13 04:01:31;;;;;;;3.63;2.78;;;14.90;99.90;15.00;100357.00;;;;5005381;27;94187;-68
2023/10/13 04:04:06;;;;;;;4.65;2.70;;;14.90;99.90;15.00;100347.00;;;;5004580;27;93815;-68
2023/10/13 04:17:27;;;;;;;3.22;2.90;;;15.20;99.90;15.30;100347.00;;;;4987327;27;94153;-67
2023/10/13 04:37:22;;;;;;;3.75;2.17;;;15.50;99.90;15.50;100334.00;;;;5002977;27;93115;-68
2023/10/13 04:41:39;;;;;;;3.17;2.45;;;15.50;99.90;15.60;100320.00;;;;5001462;27;102749;-68
2023/10/13 04:47:09;;;;;;;6.65;2.95;;;15.60;99.90;15.70;100325.00;;;;5002656;27;92800;-67
2023/10/13 04:57:23;;;;;;;2.90;2.20;;;15.80;99.90;15.90;100343.00;;;;5000764;27;93132;-68
2023/10/13 05:47:12;;;;;;;2.53;1.92;;;16.20;99.90;16.20;100347.00;;;;5009498;27;93009;-68
2023/10/13 05:50:04;;;;;;;5.72;2.40;;;16.20;99.90;16.20;100345.00;;;;5002674;27;94353;-68
2023/10/13 06:31:01;;;;;;;3.42;2.15;;;17.30;99.90;17.50;100347.00;;;;5006573;27;93607;-67
2023/10/13 06:33:28;;;;;;;1.30;1.00;;;17.40;99.90;17.60;100357.00;;;;4993226;27;93184;-69
2023/10/13 06:35:58;;;;;;;2.33;1.60;;;17.50;99.90;17.70;100351.00;;;;4994626;27;93247;-69
2023/10/13 06:38:24;;;;;;;2.30;1.50;;;17.60;99.90;17.70;100338.00;;;;5004377;27;93657;-69
2023/10/13 06:40:52;;;;;;;2.47;1.90;;;17.60;99.90;17.80;100342.00;;;;5006357;27;92902;-68
2023/10/13 06:43:21;;;;;;;4.25;2.03;;;17.70;99.90;18.00;100354.00;;;;5007438;27;94276;-69
2023/10/13 06:46:00;;;;;;;2.35;1.88;;;17.80;99.90;18.10;100349.00;;;;5004063;27;93691;-68
2023/10/13 06:48:26;;;;;;;1.63;1.33;;;18.00;99.90;18.40;100347.00;;;;5009325;27;92110;-69
2023/10/13 06:50:52;;;;;;;1.77;1.35;;;18.20;99.90;18.60;100350.00;;;;5006510;27;92996;-67
2023/10/13 06:53:19;;;;;;;2.03;1.38;;;18.40;99.90;18.80;100356.00;;;;5002916;27;94298;-67
2023/10/13 06:55:47;;;;;;;1.60;1.50;;;18.60;99.90;18.80;100354.00;;;;5001965;27;93837;-67
2023/10/13 06:58:17;;;;;;;1.40;1.30;;;18.70;99.90;18.90;100338.00;;;;5004105;27;94684;-68
2023/10/13 07:00:57;;;;;;;2.70;1.67;;;18.80;99.90;19.10;100347.00;;;;5006258;27;93108;-67
2023/10/13 07:03:24;;;;;;;1.67;1.35;;;18.90;99.90;19.20;100347.00;;;;5007269;27;93011;-69
2023/10/13 07:05:51;;;;;;;1.25;1.17;;;19.10;99.90;19.40;100341.00;;;;5005163;27;94054;-69
2023/10/13 07:08:19;;;;;;;1.73;1.27;;;19.20;99.90;19.60;100348.00;;;;5006222;27;92899;-68
2023/10/13 07:11:08;;;;;;;3.33;0.98;;;19.40;99.90;19.70;100339.00;;;;4996710;27;93130;-67
2023/10/13 07:13:47;;;;;;;4.43;2.13;;;19.60;99.90;19.80;100347.00;;;;5001869;27;94862;-68
2023/10/13 07:16:13;;;;;;;1.60;0.93;;;19.70;99.90;19.90;100344.00;;;;5007419;27;94462;-69
2023/10/13 07:19:04;;;;;;;1.38;1.25;;;19.70;99.90;20.10;100349.00;;;;5003896;27;110070;-68
2023/10/13 07:21:33;;;;;;;3.22;1.13;;;19.90;99.90;20.20;100343.00;;;;5005373;27;93733;-68
2023/10/13 07:24:08;;;;;;;3.33;1.55;;;20.10;99.90;20.50;100342.00;;;;5005076;27;92861;-68
2023/10/13 07:26:35;;;;;;;1.23;1.05;;;20.20;99.90;20.60;100343.00;;;;5008588;27;93113;-68
2023/10/13 07:29:01;;;;;;;2.47;1.38;;;20.40;99.90;20.60;100345.00;;;;5006109;27;93163;-69
2023/10/13 07:31:27;;;;;;;3.40;1.20;;;20.50;99.90;20.50;100346.00;;;;5007183;27;109274;-68
2023/10/13 07:34:03;;;;;;;1.52;1.25;;;20.40;99.90;20.40;100349.00;;;;5004830;27;123177;-68
2023/10/13 07:36:33;;;;;;;2.72;1.70;;;20.30;99.90;20.40;100337.00;;;;4988261;27;93519;-70
2023/10/13 07:39:21;;;;;;;1.33;1.15;;;20.30;99.90;20.50;100335.00;;;;5004251;27;92501;-69
2023/10/13 07:41:51;;;;;;;2.10;1.35;;;20.40;99.90;20.50;100324.00;;;;5006900;27;93438;-68
2023/10/13 07:44:20;;;;;;;3.25;1.80;;;20.40;99.90;20.50;100312.00;;;;4988192;27;94323;-67
2023/10/13 07:46:57;;;;;;;4.05;1.45;;;20.40;99.90;20.50;100311.00;;;;5004586;27;93721;-68
2023/10/13 07:49:24;;;;;;;1.40;1.25;;;20.30;99.90;20.50;100321.00;;;;5004438;27;93170;-69
2023/10/13 07:51:56;;;;;;;3.83;1.30;;;20.40;99.90;20.60;100318.00;;;;5004025;27;93133;-68
2023/10/13 07:54:22;;;;;;;1.15;0.95;;;20.50;99.90;20.70;100306.00;;;;5005491;27;94084;-69
2023/10/13 07:56:48;;;;;;;2.15;1.17;;;20.50;99.90;20.80;100307.00;;;;5006254;27;120729;-69
2023/10/13 07:59:21;;;;;;;1.58;1.10;;;20.60;99.90;20.80;100298.00;;;;5006857;27;94226;-68
2023/10/13 08:01:55;;;;;;;1.30;0.95;;;20.60;99.90;20.90;100289.00;;;;5008257;27;93133;-68
2023/10/13 08:04:28;;;;;;;3.28;1.40;;;20.70;99.90;21.00;100298.00;;;;5001572;27;93488;-70
2023/10/13 08:07:02;;;;;;;0.95;0.85;;;20.80;99.90;21.00;100297.00;;;;5000504;27;97253;-69
2023/10/13 08:09:30;;;;;;;2.63;1.48;;;20.90;99.90;21.10;100289.00;;;;5003425;27;94083;-67
2023/10/13 08:11:56;;;;;;;1.13;1.02;;;20.90;99.90;21.30;100293.00;;;;5003909;27;93904;-68
2023/10/13 08:14:22;;;;;;;1.85;1.25;;;21.00;99.90;21.40;100291.00;;;;5003106;27;93751;-69
2023/10/13 08:16:55;;;;;;;1.30;0.93;;;21.20;99.90;21.40;100286.00;;;;5005921;27;93558;-69
2023/10/13 08:19:28;;;;;;;1.73;1.15;;;21.30;99.90;21.40;100288.00;;;;5003657;27;92837;-69
2023/10/13 08:21:59;;;;;;;2.47;1.38;;;21.30;99.90;21.50;100291.00;;;;4992792;27;93324;-68
2023/10/13 08:24:29;;;;;;;1.23;1.13;;;21.30;99.90;21.50;100298.00;;;;5007301;27;93791;-68
2023/10/13 08:32:14;;;;;;;2.47;1.02;;;21.30;99.90;21.50;100283.00;;;;5001807;27;92660;-69
2023/10/13 08:35:09;;;;;;;1.75;1.13;;;21.30;99.90;21.50;100289.00;;;;5001627;27;95845;-68
2023/10/13 08:39:58;;;;;;;0.57;0.57;;;21.30;99.90;21.50;100293.00;;;;5005065;27;93814;-69
2023/10/13 08:48:12;;;;;;;1.27;0.90;;;21.40;99.90;21.70;100287.00;;;;5002965;27;92855;-68
2023/10/13 08:59:38;;;;;;;3.33;1.00;;;21.60;99.90;21.80;100278.00;;;;5005547;27;93497;-69
2023/10/13 09:09:28;;;;;;;1.35;1.25;;;21.70;99.90;22.00;100267.00;;;;4998608;27;92986;-69
2023/10/13 09:12:07;;;;;;;1.95;0.80;;;21.70;99.90;22.10;100261.00;;;;5004095;27;92781;-71
2023/10/13 09:14:36;;;;;;;1.15;0.80;;;21.90;99.90;22.30;100261.00;;;;5004748;27;92933;-69
2023/10/13 09:19:58;;;;;;;1.65;1.00;;;22.20;99.90;22.60;100265.00;;;;5005760;27;93021;-68
2023/10/13 09:22:36;;;;;;;2.55;0.90;;;23.10;99.90;22.80;100273.00;;;;5007573;27;92170;-68
2023/10/13 09:25:05;;;;;;;0.65;0.65;;;22.60;99.90;22.90;100259.00;;;;4984813;27;93168;-68
2023/10/13 09:27:33;;;;;;;1.25;0.70;;;22.70;99.90;22.90;100257.00;;;;5007669;27;100801;-68
2023/10/13 09:30:18;;;;;;;3.15;0.88;;;22.70;99.90;22.80;100269.00;;;;4986603;27;107832;-68
2023/10/13 09:32:50;;;;;;;2.40;1.38;;;22.70;99.70;22.70;100253.00;;;;5008444;27;94174;-69
2023/10/13 09:35:22;;;;;;;0.82;0.80;;;22.60;99.90;22.60;100252.00;;;;5007974;27;92891;-68
2023/10/13 09:37:50;;;;;;;1.15;0.73;;;22.50;99.90;22.50;100248.00;;;;5006702;27;94096;-68
2023/10/13 09:43:07;;;;;;;1.65;1.10;;;22.60;99.90;22.40;100247.00;;;;5008245;27;93604;-69
2023/10/13 09:45:39;;;;;;;1.83;0.85;;;22.30;99.90;22.40;100248.00;;;;4994225;27;93085;-70
2023/10/13 09:48:21;;;;;;;0.80;0.70;;;22.20;99.90;22.30;100250.00;;;;4989603;27;92875;-69
2023/10/13 09:50:48;;;;;;;1.92;1.13;;;22.10;99.90;22.30;100243.00;;;;5004605;27;93284;-70
2023/10/13 09:53:23;;;;;;;2.58;1.00;;;22.10;99.90;22.30;100245.00;;;;5004343;27;94699;-69
2023/10/13 09:56:14;;;;;;;1.52;1.13;;;22.10;99.90;22.30;100242.00;;;;5007323;27;94132;-68
2023/10/13 09:59:10;;;;;;;4.25;1.23;;;22.10;99.90;22.20;100242.00;;;;4995717;27;93258;-69
2023/10/13 10:02:08;;;;;;;0.90;0.90;;;22.10;99.90;22.00;100243.00;;;;4978663;27;92931;-69
2023/10/13 10:04:44;;;;;;;1.75;1.17;;;22.00;99.90;21.80;100230.00;;;;4997317;27;94707;-68
2023/10/13 10:07:10;;;;;;;1.10;0.82;;;21.70;99.90;21.80;100239.00;;;;5005949;27;92760;-69
2023/10/13 10:09:37;;;;;;;1.33;1.08;;;21.70;99.90;21.80;100230.00;;;;5007457;27;93695;-68
2023/10/13 10:12:37;;;;;;;2.50;1.40;;;21.70;99.90;21.90;100235.00;;;;4983704;27;93141;-69
2023/10/13 10:15:28;;;;;;;1.27;1.13;;;21.70;99.90;22.10;100223.00;;;;4971868;27;92398;-68
2023/10/13 10:17:54;;;;;;;1.77;0.90;;;21.80;99.90;22.20;100227.00;;;;4993081;27;92979;-69
2023/10/13 10:20:44;;;;;;;1.33;1.10;;;22.00;99.90;22.30;100229.00;;;;5002903;27;93963;-68
2023/10/13 10:23:21;;;;;;;1.92;1.38;;;22.10;99.90;22.40;100219.00;;;;5005325;27;94019;-70
2023/10/13 10:25:51;;;;;;;2.58;0.93;;;22.20;99.90;22.50;100214.00;;;;4995247;27;92877;-69
2023/10/13 10:28:19;;;;;;;1.95;1.40;;;22.20;99.90;22.50;100213.00;;;;4992603;27;92907;-67
2023/10/13 10:30:44;;;;;;;1.38;0.82;;;22.30;99.90;22.60;100215.00;;;;5006427;27;94565;-66
2023/10/13 10:33:18;;;;;;;0.85;0.85;;;22.40;99.90;22.80;100220.00;;;;5003987;27;93088;-67
2023/10/13 10:35:46;;;;;;;3.28;1.92;;;22.50;99.90;22.80;100210.00;;;;5008279;27;92896;-68
2023/10/13 10:38:32;;;;;;;1.42;1.27;;;22.60;99.90;22.80;100212.00;;;;5002117;27;92846;-69
2023/10/13 10:41:01;;;;;;;1.45;0.80;;;22.60;99.90;22.70;100210.00;;;;5010218;27;93666;-69
2023/10/13 10:43:42;;;;;;;3.42;1.63;;;22.60;99.90;22.60;100202.00;;;;5007402;27;106573;-68
2023/10/13 10:46:18;;;;;;;1.52;0.98;;;22.50;99.90;22.40;100214.00;;;;4994110;27;93076;-69
2023/10/13 10:48:56;;;;;;;2.25;1.30;;;22.30;99.90;22.30;100209.00;;;;5002807;27;94078;-67
2023/10/13 10:51:22;;;;;;;1.55;0.88;;;22.20;99.90;22.30;100221.00;;;;5004626;27;93681;-69
2023/10/13 10:53:52;;;;;;;1.48;1.10;;;22.10;99.90;22.30;100202.00;;;;5008293;27;92872;-68
2023/10/13 10:59:04;;;;;;;2.63;1.45;;;22.10;99.90;22.20;100205.00;;;;5003628;27;93043;-67
2023/10/13 11:01:46;;;;;;;0.68;0.68;;;22.10;99.90;22.10;100198.00;;;;5006033;27;110148;-67
2023/10/13 11:06:54;;;;;;;2.15;1.48;;;21.70;99.90;21.30;100201.00;;;;5006956;27;92253;-68
2023/10/13 11:12:03;;;;;;;2.08;1.25;;;21.00;99.90;20.70;100187.00;;;;5006208;27;92829;-69
2023/10/13 11:14:30;;;;;;;1.42;1.13;;;20.80;99.90;20.60;100182.00;;;;5005643;27;94089;-70
2023/10/13 11:17:04;;;;;;;2.75;1.38;;;20.50;99.90;20.40;100182.00;;;;5004467;27;110306;-70
2023/10/13 11:19:38;;;;;;;1.33;1.00;;;20.40;99.90;20.20;100183.00;;;;5007037;27;93066;-69
2023/10/13 11:22:37;;;;;;;4.90;1.50;;;20.20;99.90;20.00;100179.00;;;;5006978;27;94337;-69
2023/10/13 11:25:11;;;;;;;3.55;2.17;;;20.00;99.90;19.90;100176.00;;;;5002945;27;93306;-69
2023/10/13 11:30:19;;;;;;;1.83;1.42;;;19.70;99.90;19.60;100171.00;;;;5003507;27;93086;-68
2023/10/13 11:32:56;;;;;;;1.98;1.75;;;19.50;99.90;19.50;100161.00;;;;5006508;27;92777;-69
2023/10/13 11:35:23;;;;;;;2.05;1.70;;;19.40;99.90;19.40;100160.00;;;;5004811;27;92957;-69
2023/10/13 11:43:23;;;;;;;2.58;1.40;;;19.20;99.90;19.20;100135.00;;;;5004500;27;93224;-69
2023/10/13 11:48:36;;;;;;;5.32;1.88;;;19.10;99.90;19.20;100125.00;;;;5002867;27;92873;-68
2023/10/13 11:51:45;;;;;;;2.40;1.77;;;19.10;99.90;19.20;100114.00;;;;5005979;27;93850;-66
2023/10/13 11:53:52;;;;;;;2.83;1.70;;;19.10;99.90;19.10;100099.00;;;;4991781;27;93414;-69
2023/10/13 11:56:22;;;;;;;4.38;2.47;;;19.10;99.90;19.10;100093.00;;;;5002419;27;122285;-67
2023/10/13 11:58:48;;;;;;;2.80;2.17;;;19.00;99.90;19.10;100089.00;;;;5003920;27;92121;-68
2023/10/13 12:11:48;;;;;;;2.80;1.45;;;19.10;99.90;19.20;100085.00;;;;5008229;27;92935;-67
2023/10/13 12:14:36;;;;;;;2.40;1.08;;;19.10;99.90;19.20;100080.00;;;;5007608;27;93353;-67
2023/10/13 12:17:04;;;;;;;2.53;2.30;;;19.10;99.90;19.20;100068.00;;;;5006012;27;92713;-67
2023/10/13 12:19:30;;;;;;;4.65;1.83;;;19.10;99.90;19.30;100078.00;;;;5011122;27;92913;-68
2023/10/13 12:22:03;;;;;;;5.22;1.83;;;19.20;99.90;19.30;100075.00;;;;5006681;27;100493;-66
2023/10/13 12:27:02;;;;;;;3.67;1.52;;;19.30;99.90;19.40;100064.00;;;;5005880;27;92965;-68
2023/10/13 12:29:29;;;;;;;2.78;1.65;;;19.30;99.90;19.50;100066.00;;;;5003936;27;97338;-68
2023/10/13 12:32:08;;;;;;;2.58;1.73;;;19.30;99.90;19.50;100055.00;;;;5007452;27;93849;-65
2023/10/13 12:34:57;;;;;;;2.60;1.63;;;19.40;99.90;19.50;100056.00;;;;4988957;27;93549;-67
2023/10/13 12:51:23;;;;;;;5.95;1.67;;;19.70;99.90;19.80;100028.00;;;;5005033;27;92250;-65
2023/10/13 12:53:51;;;;;;;5.50;1.80;;;19.70;99.90;19.90;100027.00;;;;5004675;27;92851;-65
2023/10/13 12:56:25;;;;;;;2.47;2.03;;;19.70;99.90;19.90;100025.00;;;;5004750;27;92952;-67
2023/10/13 12:58:52;;;;;;;3.58;2.40;;;19.80;99.90;20.00;100020.00;;;;4991522;27;94296;-64
2023/10/13 13:01:24;;;;;;;4.50;2.50;;;19.80;99.90;20.00;100007.00;;;;5004294;27;101549;-65
2023/10/13 13:03:55;;;;;;;3.65;1.52;;;19.90;99.90;20.00;100002.00;;;;5002734;27;92922;-66
2023/10/13 13:06:26;;;;;;;2.60;1.75;;;19.90;99.90;20.10;100000.00;;;;5004942;27;93107;-67
2023/10/13 13:08:57;;;;;;;2.78;2.15;;;20.00;99.90;20.10;100001.00;;;;5002842;27;92908;-67
2023/10/13 13:11:23;;;;;;;3.45;1.60;;;20.00;99.90;20.20;99996.00;;;;5007143;27;102055;-66
2023/10/13 13:13:49;;;;;;;2.88;1.98;;;20.10;99.90;20.30;99991.00;;;;5004733;27;93392;-66
2023/10/13 13:16:18;;;;;;;2.95;1.75;;;20.10;99.90;20.30;99982.00;;;;5004260;27;97793;-65
2023/10/13 13:18:45;;;;;;;4.28;2.45;;;20.20;99.90;20.40;99981.00;;;;5006629;27;93274;-67
2023/10/13 13:21:12;;;;;;;8.35;1.85;;;20.20;99.90;20.40;99981.00;;;;5005099;27;95128;-66
2023/10/13 13:23:39;;;;;;;2.05;1.75;;;20.20;99.90;20.50;99967.00;;;;5009354;27;94072;-66
2023/10/13 13:26:15;;;;;;;5.38;2.08;;;20.30;99.90;20.60;99970.00;;;;5001127;27;94286;-67
2023/10/13 13:28:50;;;;;;;7.05;1.90;;;20.40;99.90;20.70;99967.00;;;;5006862;27;93829;-67
2023/10/13 13:31:29;;;;;;;4.95;1.88;;;20.50;99.90;20.80;99957.00;;;;4986444;27;92937;-68
2023/10/13 13:33:55;;;;;;;3.80;1.38;;;20.60;99.90;21.00;99958.00;;;;5006702;27;93063;-65
2023/10/13 13:36:22;;;;;;;7.43;2.30;;;20.80;99.90;21.10;99961.00;;;;5001792;27;113349;-66
2023/10/13 13:38:50;;;;;;;3.80;1.98;;;20.90;99.90;21.20;99956.00;;;;5004655;27;94391;-66
2023/10/13 13:41:17;;;;;;;4.18;1.95;;;21.00;99.90;21.30;99957.00;;;;5005504;27;92020;-66
2023/10/13 13:43:50;;;;;;;1.52;1.42;;;21.10;99.90;21.30;99952.00;;;;5006100;27;95733;-66
2023/10/13 13:46:29;;;;;;;1.95;1.70;;;21.20;99.90;21.40;99942.00;;;;5003278;27;93184;-67
2023/10/13 13:48:59;;;;;;;5.68;1.58;;;21.20;99.90;21.40;99936.00;;;;5000333;27;93884;-65
2023/10/13 13:51:27;;;;;;;4.68;1.75;;;21.30;99.90;21.50;99919.00;;;;5002543;27;92798;-68
2023/10/13 13:53:54;;;;;;;5.47;2.53;;;21.30;99.90;21.50;99922.00;;;;5005084;27;93179;-65
2023/10/13 13:56:20;;;;;;;8.50;1.65;;;21.30;99.90;21.50;99919.00;;;;5007279;27;93936;-67
2023/10/13 13:58:51;;;;;;;2.58;1.70;;;21.40;99.90;21.50;99926.00;;;;5006641;27;93394;-66
2023/10/13 14:01:18;;;;;;;3.33;2.03;;;21.40;99.90;21.50;99919.00;;;;4991895;27;92910;-67
2023/10/13 14:03:46;;;;;;;4.05;2.22;;;21.40;99.90;21.50;99914.00;;;;5004690;27;93075;-68
2023/10/13 14:06:18;;;;;;;1.98;1.48;;;21.40;99.90;21.50;99904.00;;;;5005825;27;92339;-69
2023/10/13 14:08:48;;;;;;;1.88;1.77;;;21.40;99.90;21.50;99900.00;;;;5008676;27;92966;-67
2023/10/13 14:14:12;;;;;;;3.10;1.75;;;21.40;99.90;21.40;99908.00;;;;5004693;27;93908;-68
2023/10/13 14:17:13;;;;;;;4.25;1.88;;;21.30;99.90;21.40;99902.00;;;;5008039;27;94796;-66
2023/10/13 14:19:40;;;;;;;1.52;1.15;;;21.30;99.90;21.40;99895.00;;;;5000326;27;109750;-68
2023/10/13 14:22:06;;;;;;;2.67;1.95;;;21.20;99.90;21.30;99897.00;;;;5010889;27;92666;-66
2023/10/13 14:24:35;;;;;;;3.88;2.03;;;21.20;99.90;21.30;99898.00;;;;5008910;27;95454;-68
2023/10/13 14:27:09;;;;;;;3.55;2.10;;;21.20;99.90;21.30;99897.00;;;;5007743;27;93745;-66
2023/10/13 14:29:42;;;;;;;3.28;2.15;;;21.10;99.90;21.20;99885.00;;;;5009271;27;96034;-67
2023/10/13 14:32:17;;;;;;;2.25;1.70;;;21.10;99.90;21.20;99888.00;;;;5011328;27;92041;-66
2023/10/13 14:34:48;;;;;;;2.13;1.92;;;21.10;99.90;21.20;99881.00;;;;5006764;27;94236;-67
2023/10/13 14:37:14;;;;;;;5.20;1.70;;;21.10;99.90;21.20;99886.00;;;;5008782;27;94115;-68
2023/10/13 14:39:43;;;;;;;2.38;1.48;;;21.10;99.90;21.20;99877.00;;;;5006026;27;114671;-68
2023/10/13 14:42:08;;;;;;;4.18;1.58;;;21.00;99.90;21.20;99879.00;;;;5007462;27;93162;-65
2023/10/13 14:44:35;;;;;;;6.50;2.22;;;21.00;99.90;21.20;99876.00;;;;5008288;27;109441;-68
2023/10/13 14:47:02;;;;;;;2.35;1.65;;;21.00;99.90;21.20;99868.00;;;;5002698;27;92846;-67
2023/10/13 14:49:28;;;;;;;3.67;1.98;;;21.00;99.90;21.20;99881.00;;;;5001263;27;93899;-66
2023/10/13 14:51:59;;;;;;;4.88;2.95;;;21.00;99.90;21.20;99869.00;;;;5002499;27;92894;-67
2023/10/13 14:54:34;;;;;;;4.63;1.88;;;21.00;99.90;21.20;99873.00;;;;4999512;27;93073;-67